createdAt,value
2023-05-21T00:00:51.842Z,12.70
2023-05-21T00:03:21.228Z,12.74
2023-05-21T00:05:50.291Z,12.81
2023-05-21T00:08:19.439Z,12.88
2023-05-21T00:10:47.506Z,12.92
2023-05-21T00:13:16.346Z,12.99
2023-05-21T00:15:44.584Z,13.00
2023-05-21T00:18:14.577Z,13.04
2023-05-21T00:20:43.163Z,13.08
2023-05-21T00:23:11.461Z,13.11
2023-05-21T00:25:39.790Z,13.12
2023-05-21T00:28:10.141Z,13.14
2023-05-21T00:30:39.998Z,13.18
2023-05-21T00:33:10.634Z,13.19
2023-05-21T00:35:40.228Z,13.22
2023-05-21T00:38:09.045Z,13.22
2023-05-21T00:40:37.512Z,13.22
2023-05-21T00:43:05.852Z,13.27
2023-05-21T00:45:36.945Z,13.31
2023-05-21T00:48:06.691Z,13.33
2023-05-21T00:50:34.928Z,13.33
2023-05-21T00:53:04.993Z,13.37
2023-05-21T00:55:33.445Z,13.36
2023-05-21T00:58:01.875Z,13.40
2023-05-21T01:00:30.277Z,13.41
2023-05-21T01:02:58.555Z,13.44
2023-05-21T01:05:26.736Z,13.45
2023-05-21T01:07:55.016Z,13.41
2023-05-21T01:10:25.261Z,13.42
2023-05-21T01:12:54.453Z,13.46
2023-05-21T01:15:22.677Z,13.45
2023-05-21T01:17:51.704Z,13.47
2023-05-21T01:20:20.722Z,13.48
2023-05-21T01:22:53.023Z,13.51
2023-05-21T01:25:21.233Z,13.54
2023-05-21T01:27:49.367Z,13.55
2023-05-21T01:30:18.300Z,13.57
2023-05-21T01:32:50.229Z,13.59
2023-05-21T01:35:21.064Z,13.61
2023-05-21T01:37:52.860Z,13.61
2023-05-21T01:40:25.269Z,13.59
2023-05-21T01:42:54.273Z,13.62
2023-05-21T01:45:23.827Z,13.61
2023-05-21T01:47:53.661Z,13.61
2023-05-21T01:50:23.998Z,13.62
2023-05-21T01:52:52.819Z,13.62
2023-05-21T01:55:25.049Z,13.61
2023-05-21T01:57:54.361Z,13.62
2023-05-21T02:00:23.108Z,13.63
2023-05-21T02:02:52.204Z,13.61
2023-05-21T02:05:20.363Z,13.61
2023-05-21T02:07:49.969Z,13.62
2023-05-21T02:10:18.387Z,13.61
2023-05-21T02:12:48.177Z,13.63
2023-05-21T02:15:18.147Z,13.64
2023-05-21T02:17:46.529Z,13.64
2023-05-21T02:20:15.724Z,13.65
2023-05-21T02:22:44.578Z,13.60
2023-05-21T02:25:13.212Z,13.57
2023-05-21T02:27:42.620Z,13.51
2023-05-21T02:30:13.425Z,13.46
2023-05-21T02:32:42.858Z,13.41
2023-05-21T02:35:12.194Z,13.40
2023-05-21T02:37:41.491Z,13.32
2023-05-21T02:40:10.332Z,13.30
2023-05-21T02:42:40.125Z,13.28
2023-05-21T02:45:11.151Z,13.29
2023-05-21T02:47:42.994Z,13.26
2023-05-21T02:50:11.425Z,13.26
2023-05-21T02:52:46.095Z,13.21
2023-05-21T02:55:14.738Z,13.18
2023-05-21T02:57:42.925Z,13.18
2023-05-21T03:00:11.887Z,13.17
2023-05-21T03:02:42.700Z,13.17
2023-05-21T03:05:11.142Z,13.17
2023-05-21T03:07:39.262Z,13.19
2023-05-21T03:10:08.229Z,13.16
2023-05-21T03:12:36.617Z,13.18
2023-05-21T03:15:04.992Z,13.19
2023-05-21T03:17:33.232Z,13.18
2023-05-21T03:20:05.321Z,13.20
2023-05-21T03:22:33.716Z,13.22
2023-05-21T03:25:02.874Z,13.26
2023-05-21T03:27:31.329Z,13.27
2023-05-21T03:30:00.185Z,13.28
2023-05-21T03:32:29.293Z,13.31
2023-05-21T03:34:58.025Z,13.33
2023-05-21T03:37:27.542Z,13.30
2023-05-21T03:39:55.640Z,13.31
2023-05-21T03:42:23.786Z,13.33
2023-05-21T03:44:55.235Z,13.32
2023-05-21T03:47:46.820Z,13.33
2023-05-21T03:50:15.091Z,13.32
2023-05-21T03:52:44.684Z,13.32
2023-05-21T03:55:13.517Z,13.29
2023-05-21T03:57:42.274Z,13.28
2023-05-21T04:00:11.173Z,13.27
2023-05-21T04:02:45.126Z,13.22
2023-05-21T04:05:16.795Z,13.21
2023-05-21T04:07:48.708Z,13.19
2023-05-21T04:10:16.925Z,13.18
2023-05-21T04:12:45.002Z,13.16
2023-05-21T04:15:13.183Z,13.18
2023-05-21T04:17:41.743Z,13.18
2023-05-21T04:20:12.042Z,13.19
2023-05-21T04:22:40.482Z,13.23
2023-05-21T04:25:10.928Z,13.24
2023-05-21T04:27:40.101Z,13.23
2023-05-21T04:30:09.806Z,13.27
2023-05-21T04:32:38.698Z,13.26
2023-05-21T04:35:10.236Z,13.30
2023-05-21T04:37:42.260Z,13.31
2023-05-21T04:40:12.998Z,13.35
2023-05-21T04:42:41.494Z,13.35
2023-05-21T04:45:11.390Z,13.37
2023-05-21T04:47:41.973Z,13.38
2023-05-21T04:50:12.086Z,13.38
2023-05-21T04:52:40.825Z,13.40
2023-05-21T04:55:09.389Z,13.40
2023-05-21T04:57:39.276Z,13.41
2023-05-21T05:00:10.542Z,13.43
2023-05-21T05:02:43.393Z,13.45
2023-05-21T05:05:11.603Z,13.46
2023-05-21T05:07:39.777Z,13.46
2023-05-21T05:10:08.867Z,13.47
2023-05-21T05:12:38.380Z,13.51
2023-05-21T05:15:07.281Z,13.51
2023-05-21T05:17:35.754Z,13.52
2023-05-21T05:20:04.097Z,13.55
2023-05-21T05:22:32.180Z,13.56
2023-05-21T05:25:00.246Z,13.57
2023-05-21T05:27:28.869Z,13.59
2023-05-21T05:29:58.792Z,13.60
2023-05-21T05:32:26.888Z,13.61
2023-05-21T05:34:56.682Z,13.63
2023-05-21T05:37:25.006Z,13.64
2023-05-21T05:39:53.222Z,13.67
2023-05-21T05:42:21.331Z,13.69
2023-05-21T05:44:49.490Z,13.68
2023-05-21T05:47:19.037Z,13.67
2023-05-21T05:49:47.197Z,13.67
2023-05-21T05:52:16.152Z,13.70
2023-05-21T05:54:44.802Z,13.73
2023-05-21T05:57:13.346Z,13.74
2023-05-21T05:59:41.798Z,13.78
2023-05-21T06:02:10.516Z,13.77
2023-05-21T06:04:40.444Z,13.82
2023-05-21T06:07:09.264Z,13.81
2023-05-21T06:09:38.921Z,13.86
2023-05-21T06:12:07.636Z,13.89
2023-05-21T06:14:35.797Z,13.90
2023-05-21T06:17:04.265Z,13.91
2023-05-21T06:19:32.523Z,13.91
2023-05-21T06:22:02.457Z,13.93
2023-05-21T06:24:31.174Z,13.96
2023-05-21T06:26:59.270Z,13.97
2023-05-21T06:29:27.804Z,14.00
2023-05-21T06:31:56.424Z,14.00
2023-05-21T06:34:24.562Z,13.99
2023-05-21T06:36:53.045Z,14.05
2023-05-21T06:39:22.572Z,14.10
2023-05-21T06:41:51.401Z,14.08
2023-05-21T06:44:42.042Z,14.12
2023-05-21T06:47:16.085Z,14.17
2023-05-21T06:49:45.657Z,14.18
2023-05-21T06:52:14.790Z,14.19
2023-05-21T06:54:44.934Z,14.22
2023-05-21T06:57:13.147Z,14.31
2023-05-21T06:59:41.688Z,14.39
2023-05-21T07:02:10.146Z,14.44
2023-05-21T07:04:38.484Z,14.55
2023-05-21T07:07:07.206Z,14.55
2023-05-21T07:09:35.392Z,14.53
2023-05-21T07:12:05.166Z,14.63
2023-05-21T07:14:34.455Z,14.67
2023-05-21T07:17:03.225Z,14.68
2023-05-21T07:19:32.640Z,14.69
2023-05-21T07:22:00.854Z,14.67
2023-05-21T07:24:29.104Z,14.60
2023-05-21T07:26:57.452Z,14.58
2023-05-21T07:29:27.200Z,14.65
2023-05-21T07:31:55.993Z,14.63
2023-05-21T07:34:24.150Z,14.63
2023-05-21T07:36:52.498Z,14.59
2023-05-21T07:39:20.978Z,14.52
2023-05-21T07:41:49.811Z,14.54
2023-05-21T07:44:17.914Z,14.55
2023-05-21T07:46:49.143Z,14.60
2023-05-21T07:49:18.384Z,14.54
2023-05-21T07:51:48.874Z,14.58
2023-05-21T07:54:17.371Z,14.63
2023-05-21T07:56:46.991Z,14.60
2023-05-21T07:59:28.498Z,14.62
2023-05-21T08:01:58.340Z,14.73
2023-05-21T08:04:27.341Z,14.77
2023-05-21T08:06:56.616Z,14.84
2023-05-21T08:09:25.696Z,14.91
2023-05-21T08:11:53.928Z,14.90
2023-05-21T08:14:22.525Z,14.92
2023-05-21T08:16:51.590Z,14.98
2023-05-21T08:19:21.214Z,15.03
2023-05-21T08:21:51.341Z,15.04
2023-05-21T08:24:21.980Z,15.07
2023-05-21T08:26:51.134Z,15.21
2023-05-21T08:29:19.996Z,15.32
2023-05-21T08:31:50.250Z,15.33
2023-05-21T08:34:20.146Z,15.46
2023-05-21T08:36:58.236Z,15.48
2023-05-21T08:39:52.671Z,15.57
2023-05-21T08:42:36.241Z,15.63
2023-05-21T08:45:08.258Z,15.68
2023-05-21T08:47:37.664Z,15.66
2023-05-21T08:50:09.599Z,15.73
2023-05-21T08:52:40.137Z,15.77
2023-05-21T08:55:09.273Z,15.86
2023-05-21T08:57:42.487Z,15.88
2023-05-21T09:00:11.917Z,16.05
2023-05-21T09:02:44.140Z,16.08
2023-05-21T09:05:13.856Z,16.04
2023-05-21T09:07:51.042Z,16.14
2023-05-21T09:10:35.441Z,16.19
2023-05-21T09:13:04.330Z,16.26
2023-05-21T09:15:34.326Z,16.33
2023-05-21T09:18:03.441Z,16.36
2023-05-21T09:21:21.602Z,16.39
2023-05-21T09:23:55.489Z,16.41
2023-05-21T09:26:23.809Z,16.48
2023-05-21T09:28:58.478Z,16.49
2023-05-21T09:31:27.286Z,16.55
2023-05-21T09:33:57.712Z,16.58
2023-05-21T09:36:29.830Z,16.76
2023-05-21T09:39:00.706Z,16.78
2023-05-21T09:41:37.032Z,16.91
2023-05-21T09:44:06.372Z,16.91
2023-05-21T09:46:42.404Z,16.98
2023-05-21T09:49:23.711Z,17.17
2023-05-21T09:51:56.262Z,17.34
2023-05-21T09:54:26.657Z,17.42
2023-05-21T09:56:54.814Z,17.47
2023-05-21T09:59:23.305Z,17.43
2023-05-21T10:01:52.073Z,17.33
2023-05-21T10:04:20.362Z,17.40
2023-05-21T10:06:49.179Z,17.53
2023-05-21T10:09:20.036Z,17.75
2023-05-21T10:11:51.041Z,17.93
2023-05-21T10:14:22.727Z,17.98
2023-05-21T10:16:51.536Z,17.82
2023-05-21T10:19:20.852Z,17.93
2023-05-21T10:21:50.401Z,18.00
2023-05-21T10:24:20.232Z,18.13
2023-05-21T10:26:50.505Z,18.13
2023-05-21T10:29:19.775Z,18.26
2023-05-21T10:31:50.628Z,18.27
2023-05-21T10:34:20.509Z,18.28
2023-05-21T10:36:50.794Z,18.03
2023-05-21T10:39:21.277Z,18.01
2023-05-21T10:41:59.313Z,18.09
2023-05-21T10:44:34.756Z,18.16
2023-05-21T10:47:13.378Z,18.18
2023-05-21T10:49:56.019Z,18.17
2023-05-21T10:52:33.032Z,18.07
2023-05-21T10:55:07.414Z,17.83
2023-05-21T10:57:43.502Z,17.83
2023-05-21T11:00:27.086Z,17.86
2023-05-21T11:02:56.485Z,18.10
2023-05-21T11:05:40.350Z,18.42
2023-05-21T11:08:19.807Z,18.82
2023-05-21T11:10:53.166Z,19.30
2023-05-21T11:13:23.715Z,19.84
2023-05-21T11:16:08.221Z,20.20
2023-05-21T11:18:55.391Z,20.72
2023-05-21T11:21:28.605Z,21.10
2023-05-21T11:23:58.352Z,21.46
2023-05-21T11:26:28.196Z,21.86
2023-05-21T11:29:09.749Z,22.25
2023-05-21T11:31:41.665Z,22.72
2023-05-21T11:34:15.292Z,22.57
2023-05-21T11:36:47.086Z,23.08
2023-05-21T11:39:17.921Z,23.64
2023-05-21T11:41:52.933Z,24.11
2023-05-21T11:44:38.857Z,24.19
2023-05-21T11:47:07.716Z,23.81
2023-05-21T11:49:36.825Z,23.55
2023-05-21T11:52:05.835Z,23.28
2023-05-21T11:54:36.959Z,23.80
2023-05-21T11:57:07.706Z,24.37
2023-05-21T11:59:37.706Z,24.50
2023-05-21T12:02:06.183Z,24.48
2023-05-21T12:04:36.610Z,24.52
2023-05-21T12:07:05.292Z,24.55
2023-05-21T12:09:33.838Z,24.88
2023-05-21T12:12:02.379Z,25.42
2023-05-21T12:14:30.812Z,25.24
2023-05-21T12:17:00.625Z,25.08
2023-05-21T12:19:28.849Z,24.96
2023-05-21T12:21:57.595Z,24.44
2023-05-21T12:24:26.148Z,24.47
2023-05-21T12:26:55.174Z,24.45
2023-05-21T12:29:24.850Z,24.36
2023-05-21T12:31:52.960Z,23.99
2023-05-21T12:34:36.977Z,23.95
2023-05-21T12:37:08.102Z,23.49
2023-05-21T12:39:42.237Z,23.59
2023-05-21T12:42:12.437Z,23.46
2023-05-21T12:44:41.421Z,23.06
2023-05-21T12:47:10.511Z,22.98
2023-05-21T12:49:40.703Z,22.88
2023-05-21T12:52:14.372Z,22.61
2023-05-21T12:54:44.744Z,22.39
2023-05-21T12:57:18.267Z,22.40
2023-05-21T12:59:54.340Z,22.48
2023-05-21T13:02:24.765Z,22.40
2023-05-21T13:05:12.698Z,22.81
2023-05-21T13:07:44.191Z,22.76
2023-05-21T13:10:12.504Z,22.84
2023-05-21T13:12:42.198Z,22.93
2023-05-21T13:15:12.503Z,23.09
2023-05-21T13:17:40.682Z,23.06
2023-05-21T13:20:09.705Z,23.01
2023-05-21T13:22:42.623Z,23.17
2023-05-21T13:25:12.542Z,22.90
2023-05-21T13:27:40.719Z,22.64
2023-05-21T13:30:09.734Z,22.46
2023-05-21T13:32:38.394Z,22.27
2023-05-21T13:35:06.987Z,22.12
2023-05-21T13:37:36.232Z,22.13
2023-05-21T13:40:05.988Z,21.88
2023-05-21T13:42:35.662Z,21.91
2023-05-21T13:45:03.759Z,21.60
2023-05-21T13:47:33.521Z,21.71
2023-05-21T13:50:01.744Z,21.62
2023-05-21T13:52:30.568Z,21.64
2023-05-21T13:54:58.716Z,21.75
2023-05-21T13:57:27.282Z,21.79
2023-05-21T13:59:56.755Z,21.78
2023-05-21T14:02:25.194Z,21.92
2023-05-21T14:04:54.045Z,21.56
2023-05-21T14:07:22.345Z,21.40
2023-05-21T14:09:50.887Z,21.50
2023-05-21T14:12:19.214Z,21.34
2023-05-21T14:14:49.969Z,21.34
2023-05-21T14:17:19.663Z,21.32
2023-05-21T14:19:48.165Z,21.28
2023-05-21T14:22:16.382Z,21.09
2023-05-21T14:24:44.457Z,20.79
2023-05-21T14:27:15.265Z,20.91
2023-05-21T14:29:43.624Z,20.75
2023-05-21T14:32:11.722Z,20.76
2023-05-21T14:34:41.572Z,20.72
2023-05-21T14:37:09.674Z,20.76
2023-05-21T14:39:37.801Z,20.60
2023-05-21T14:42:07.120Z,20.47
2023-05-21T14:44:35.536Z,20.56
2023-05-21T14:47:03.650Z,20.49
2023-05-21T14:49:31.717Z,20.40
2023-05-21T14:52:01.593Z,20.48
2023-05-21T14:54:29.780Z,20.34
2023-05-21T14:56:57.870Z,20.41
2023-05-21T14:59:25.929Z,20.32
2023-05-21T15:01:54.076Z,20.30
2023-05-21T15:04:22.394Z,20.28
2023-05-21T15:06:51.390Z,20.30
2023-05-21T15:09:21.363Z,20.24
2023-05-21T15:11:52.654Z,20.24
2023-05-21T15:14:20.812Z,20.29
2023-05-21T15:16:48.988Z,20.22
2023-05-21T15:19:17.252Z,20.29
2023-05-21T15:21:45.549Z,20.26
2023-05-21T15:24:13.544Z,20.18
2023-05-21T15:26:43.047Z,20.06
2023-05-21T15:29:11.141Z,20.14
2023-05-21T15:31:39.643Z,20.14
2023-05-21T15:34:08.063Z,20.16
2023-05-21T15:36:36.760Z,20.13
2023-05-21T15:39:06.335Z,20.18
2023-05-21T15:41:36.436Z,20.32
2023-05-21T15:44:06.420Z,20.15
2023-05-21T15:46:35.175Z,20.32
2023-05-21T15:49:03.337Z,20.16
2023-05-21T15:51:31.545Z,20.44
2023-05-21T15:53:59.648Z,20.51
2023-05-21T15:56:27.906Z,20.35
2023-05-21T15:58:58.654Z,20.37
2023-05-21T16:01:29.296Z,20.48
2023-05-21T16:03:57.507Z,20.45
2023-05-21T16:06:26.011Z,20.32
2023-05-21T16:08:54.280Z,20.16
2023-05-21T16:11:22.692Z,20.11
2023-05-21T16:13:50.763Z,20.03
2023-05-21T16:16:19.022Z,19.84
2023-05-21T16:18:48.689Z,19.76
2023-05-21T16:21:17.060Z,19.78
2023-05-21T16:23:45.414Z,19.82
2023-05-21T16:26:13.903Z,19.79
2023-05-21T16:28:42.196Z,19.63
2023-05-21T16:31:11.502Z,19.45
2023-05-21T16:33:39.558Z,19.49
2023-05-21T16:36:09.374Z,19.39
2023-05-21T16:38:38.303Z,19.26
2023-05-21T16:41:06.837Z,19.24
2023-05-21T16:43:35.286Z,19.10
2023-05-21T16:46:03.416Z,19.15
2023-05-21T16:48:32.918Z,19.16
2023-05-21T16:51:04.468Z,19.09
2023-05-21T16:53:34.214Z,19.13
2023-05-21T16:56:02.389Z,18.96
2023-05-21T16:58:30.459Z,18.76
2023-05-21T17:00:58.530Z,18.68
2023-05-21T17:03:26.768Z,18.50
2023-05-21T17:05:54.908Z,18.41
2023-05-21T17:08:23.295Z,18.23
2023-05-21T17:10:52.873Z,18.07
2023-05-21T17:13:22.773Z,17.91
2023-05-21T17:15:51.649Z,17.76
2023-05-21T17:18:19.948Z,17.67
2023-05-21T17:20:48.421Z,17.64
2023-05-21T17:23:16.855Z,17.66
2023-05-21T17:25:47.462Z,17.70
2023-05-21T17:28:17.477Z,17.64
2023-05-21T17:30:46.871Z,17.56
2023-05-21T17:33:17.039Z,17.48
2023-05-21T17:35:45.124Z,17.44
2023-05-21T17:38:14.234Z,17.29
2023-05-21T17:40:42.344Z,17.16
2023-05-21T17:43:10.724Z,17.08
2023-05-21T17:45:40.442Z,16.96
2023-05-21T17:48:08.684Z,16.82
2023-05-21T17:50:36.824Z,16.65
2023-05-21T17:53:05.142Z,16.64
2023-05-21T17:55:36.081Z,16.56
2023-05-21T17:58:11.149Z,16.47
2023-05-21T18:00:43.867Z,16.47
2023-05-21T18:03:12.603Z,16.32
2023-05-21T18:05:42.477Z,16.31
2023-05-21T18:08:11.565Z,16.20
2023-05-21T18:10:41.911Z,16.16
2023-05-21T18:13:14.239Z,16.15
2023-05-21T18:15:54.125Z,16.16
2023-05-21T18:18:26.392Z,16.10
2023-05-21T18:20:56.222Z,16.15
2023-05-21T18:23:28.740Z,16.12
2023-05-21T18:26:00.048Z,16.10
2023-05-21T18:28:32.836Z,15.94
2023-05-21T18:31:04.473Z,15.87
2023-05-21T18:33:34.138Z,15.73
2023-05-21T18:36:03.885Z,15.57
2023-05-21T18:38:32.493Z,15.44
2023-05-21T18:41:03.899Z,15.33
2023-05-21T18:43:32.566Z,15.31
2023-05-21T18:46:03.652Z,15.22
2023-05-21T18:48:32.059Z,15.20
2023-05-21T18:51:00.532Z,15.19
2023-05-21T18:53:32.140Z,15.15
2023-05-21T18:56:01.485Z,15.13
2023-05-21T18:58:31.123Z,15.09
2023-05-21T19:01:00.232Z,15.04
2023-05-21T19:03:32.221Z,15.04
2023-05-21T19:06:00.529Z,15.00
2023-05-21T19:08:29.114Z,15.03
2023-05-21T19:10:58.893Z,14.96
2023-05-21T19:13:29.007Z,14.93
2023-05-21T19:15:58.653Z,14.82
2023-05-21T19:18:32.470Z,14.86
2023-05-21T19:21:02.262Z,14.81
2023-05-21T19:23:35.856Z,14.80
2023-05-21T19:26:17.920Z,14.83
2023-05-21T19:28:53.911Z,14.75
2023-05-21T19:31:25.463Z,14.72
2023-05-21T19:33:57.249Z,14.65
2023-05-21T19:36:26.879Z,14.51
2023-05-21T19:38:59.530Z,14.52
2023-05-21T19:41:30.956Z,14.51
2023-05-21T19:43:59.502Z,14.52
2023-05-21T19:46:27.969Z,14.50
2023-05-21T19:48:57.467Z,14.53
2023-05-21T19:51:25.670Z,14.52
2023-05-21T19:53:53.764Z,14.50
2023-05-21T19:56:22.106Z,14.46
2023-05-21T19:58:50.342Z,14.45
2023-05-21T20:01:23.188Z,14.46
2023-05-21T20:03:52.714Z,14.45
2023-05-21T20:06:25.158Z,14.45
2023-05-21T20:08:55.126Z,14.45
2023-05-21T20:11:28.453Z,14.40
2023-05-21T20:13:57.907Z,14.37
2023-05-21T20:16:26.639Z,14.36
2023-05-21T20:18:57.036Z,14.28
2023-05-21T20:21:25.984Z,14.25
2023-05-21T20:23:55.822Z,14.23
2023-05-21T20:26:26.350Z,14.16
2023-05-21T20:28:54.590Z,14.10
2023-05-21T20:31:26.738Z,14.10
2023-05-21T20:33:55.231Z,14.07
2023-05-21T20:36:24.015Z,14.05
2023-05-21T20:38:52.214Z,13.98
2023-05-21T20:41:21.835Z,13.96
2023-05-21T20:43:50.533Z,13.91
2023-05-21T20:46:20.097Z,13.87
2023-05-21T20:48:53.183Z,13.89
2023-05-21T20:51:24.835Z,13.84
2023-05-21T20:53:55.376Z,13.80
2023-05-21T20:56:41.626Z,13.79
2023-05-21T20:59:16.211Z,13.75
2023-05-21T21:01:46.110Z,13.73
2023-05-21T21:04:17.931Z,13.72
2023-05-21T21:06:49.197Z,13.74
2023-05-21T21:09:18.413Z,13.68
2023-05-21T21:11:48.141Z,13.69
2023-05-21T21:14:16.503Z,13.68
2023-05-21T21:16:45.128Z,13.67
2023-05-21T21:19:13.322Z,13.64
2023-05-21T21:21:41.494Z,13.63
2023-05-21T21:24:10.137Z,13.61
2023-05-21T21:26:38.266Z,13.62
2023-05-21T21:29:08.304Z,13.66
2023-05-21T21:31:36.460Z,13.64
2023-05-21T21:34:04.709Z,13.65
2023-05-21T21:36:33.015Z,13.62
2023-05-21T21:39:01.338Z,13.63
2023-05-21T21:41:30.277Z,13.64
2023-05-21T21:43:58.363Z,13.57
2023-05-21T21:46:28.000Z,13.58
2023-05-21T21:48:56.329Z,13.53
2023-05-21T21:51:28.359Z,13.52
2023-05-21T21:53:58.077Z,13.53
2023-05-21T21:56:28.447Z,13.49
2023-05-21T21:58:57.960Z,13.51
2023-05-21T22:01:28.041Z,13.50
2023-05-21T22:03:57.988Z,13.52
2023-05-21T22:06:29.158Z,13.48
2023-05-21T22:08:59.751Z,13.51
2023-05-21T22:11:29.453Z,13.51
2023-05-21T22:13:57.995Z,13.52
2023-05-21T22:16:32.397Z,13.46
2023-05-21T22:19:04.015Z,13.46
2023-05-21T22:21:33.728Z,13.45
2023-05-21T22:24:06.203Z,13.43
2023-05-21T22:26:34.817Z,13.40
2023-05-21T22:29:05.192Z,13.41
2023-05-21T22:31:36.212Z,13.37
2023-05-21T22:34:04.523Z,13.39
2023-05-21T22:36:32.607Z,13.36
2023-05-21T22:39:00.862Z,13.39
2023-05-21T22:41:29.497Z,13.39
2023-05-21T22:43:58.582Z,13.40
2023-05-21T22:46:31.063Z,13.39
2023-05-21T22:49:05.886Z,13.36
2023-05-21T22:51:39.744Z,13.38
2023-05-21T22:54:11.435Z,13.32
2023-05-21T22:56:40.585Z,13.30
2023-05-21T22:59:09.250Z,13.26
2023-05-21T23:01:38.937Z,13.27
2023-05-21T23:04:13.729Z,13.27
2023-05-21T23:06:43.885Z,13.27
2023-05-21T23:09:12.787Z,13.29
2023-05-21T23:11:40.993Z,13.25
2023-05-21T23:14:11.918Z,13.25
2023-05-21T23:16:45.516Z,13.24
2023-05-21T23:19:20.649Z,13.25
2023-05-21T23:21:50.425Z,13.23
2023-05-21T23:24:21.717Z,13.24
2023-05-21T23:26:51.072Z,13.24
2023-05-21T23:29:22.436Z,13.22
2023-05-21T23:31:54.074Z,13.15
2023-05-21T23:34:24.991Z,13.10
2023-05-21T23:36:58.752Z,13.10
2023-05-21T23:39:31.853Z,13.09
2023-05-21T23:42:04.507Z,13.08
2023-05-21T23:44:37.950Z,13.09
2023-05-21T23:47:10.886Z,13.07
2023-05-21T23:49:42.213Z,13.08
2023-05-21T23:52:14.743Z,13.07
2023-05-21T23:54:46.718Z,13.02
2023-05-21T23:57:16.324Z,12.99
2023-05-21T23:59:44.589Z,12.99
